createdAt,value
2023-02-14T00:02:02.164Z,3.90
2023-02-14T00:04:48.308Z,3.87
2023-02-14T00:07:35.186Z,3.87
2023-02-14T00:10:20.758Z,3.90
2023-02-14T00:13:05.953Z,3.60
2023-02-14T00:15:51.240Z,3.97
2023-02-14T00:18:55.168Z,3.77
2023-02-14T00:21:40.368Z,3.58
2023-02-14T00:24:26.983Z,3.80
2023-02-14T00:27:12.593Z,3.27
2023-02-14T00:30:03.024Z,3.30
2023-02-14T00:32:48.619Z,3.73
2023-02-14T00:35:38.045Z,4.23
2023-02-14T00:38:23.300Z,3.83
2023-02-14T00:41:08.605Z,3.50
2023-02-14T00:43:54.272Z,3.97
2023-02-14T00:46:40.788Z,3.97
2023-02-14T00:49:26.123Z,3.77
2023-02-14T00:52:11.468Z,3.90
2023-02-14T00:54:56.891Z,4.10
2023-02-14T00:57:43.222Z,3.97
2023-02-14T01:00:28.388Z,3.57
2023-02-14T01:03:14.205Z,4.00
2023-02-14T01:05:59.408Z,3.60
2023-02-14T01:08:44.895Z,4.07
2023-02-14T01:11:30.524Z,3.40
2023-02-14T01:14:15.665Z,3.40
2023-02-14T01:17:01.451Z,3.57
2023-02-14T01:19:46.680Z,3.33
2023-02-14T01:22:36.521Z,3.50
2023-02-14T01:25:21.852Z,3.63
2023-02-14T01:28:07.137Z,4.07
2023-02-14T01:30:52.419Z,3.73
2023-02-14T01:33:39.361Z,3.80
2023-02-14T01:36:31.355Z,3.50
2023-02-14T01:39:18.543Z,3.40
2023-02-14T01:42:04.126Z,3.90
2023-02-14T01:45:20.127Z,3.20
2023-02-14T01:48:06.276Z,3.53
2023-02-14T01:50:54.807Z,3.53
2023-02-14T01:53:40.298Z,3.43
2023-02-14T01:56:31.833Z,3.40
2023-02-14T01:59:20.779Z,2.97
2023-02-14T02:02:07.318Z,3.03
2023-02-14T02:04:56.199Z,3.30
2023-02-14T02:07:43.912Z,3.37
2023-02-14T02:10:29.561Z,3.53
2023-02-14T02:13:18.749Z,3.23
2023-02-14T02:16:18.013Z,2.93
2023-02-14T02:19:22.166Z,3.10
2023-02-14T02:22:37.539Z,3.67
2023-02-14T02:25:41.080Z,2.80
2023-02-14T02:29:00.690Z,3.03
2023-02-14T02:32:12.811Z,3.20
2023-02-14T02:35:27.277Z,3.27
2023-02-14T02:38:52.529Z,2.50
2023-02-14T02:42:15.958Z,3.00
2023-02-14T02:45:27.388Z,3.25
2023-02-14T02:48:20.287Z,3.40
2023-02-14T02:51:28.788Z,3.30
2023-02-14T02:54:22.466Z,3.20
2023-02-14T02:57:22.309Z,3.03
2023-02-14T03:00:13.582Z,3.07
2023-02-14T03:03:18.478Z,3.10
2023-02-14T03:06:04.526Z,3.10
2023-02-14T03:08:49.709Z,2.83
2023-02-14T03:11:38.280Z,3.13
2023-02-14T03:14:35.451Z,3.07
2023-02-14T03:17:35.060Z,3.30
2023-02-14T03:20:35.385Z,3.27
2023-02-14T03:23:29.379Z,3.30
2023-02-14T03:26:19.879Z,3.10
2023-02-14T03:29:31.258Z,3.20
2023-02-14T03:32:29.662Z,2.60
2023-02-14T03:35:30.598Z,2.63
2023-02-14T03:38:27.168Z,2.80
2023-02-14T03:41:18.013Z,3.63
2023-02-14T03:44:07.507Z,3.17
2023-02-14T03:46:58.662Z,3.30
2023-02-14T03:49:48.954Z,3.27
2023-02-14T03:52:35.901Z,3.50
2023-02-14T03:55:33.717Z,3.53
2023-02-14T03:58:31.712Z,3.63
2023-02-14T04:01:39.629Z,3.50
2023-02-14T04:04:28.860Z,3.40
2023-02-14T04:07:19.759Z,3.57
2023-02-14T04:10:07.127Z,3.73
2023-02-14T04:12:52.961Z,3.50
2023-02-14T04:15:38.664Z,3.80
2023-02-14T04:18:42.343Z,3.83
2023-02-14T04:24:12.966Z,4.17
2023-02-14T04:27:10.579Z,3.90
2023-02-14T04:29:56.737Z,3.70
2023-02-14T04:32:42.160Z,4.10
2023-02-14T04:35:27.563Z,3.67
2023-02-14T04:38:12.681Z,4.07
2023-02-14T04:40:58.163Z,3.73
2023-02-14T04:43:43.757Z,3.80
2023-02-14T04:46:29.000Z,4.00
2023-02-14T04:49:14.604Z,3.73
2023-02-14T04:52:00.268Z,4.17
2023-02-14T04:54:45.527Z,3.33
2023-02-14T04:57:31.591Z,4.00
2023-02-14T05:00:17.606Z,3.10
2023-02-14T05:03:02.674Z,3.33
2023-02-14T05:05:47.822Z,3.30
2023-02-14T05:08:32.963Z,3.60
2023-02-14T05:11:18.462Z,3.10
2023-02-14T05:14:03.707Z,3.13
2023-02-14T05:16:48.946Z,3.07
2023-02-14T05:19:34.406Z,3.17
2023-02-14T05:22:19.779Z,3.00
2023-02-14T05:25:05.495Z,2.73
2023-02-14T05:27:51.025Z,3.13
2023-02-14T05:30:38.179Z,3.10
2023-02-14T05:33:23.657Z,3.03
2023-02-14T05:36:10.678Z,3.03
2023-02-14T05:38:55.913Z,3.10
2023-02-14T05:41:41.625Z,3.20
2023-02-14T05:44:26.920Z,2.83
2023-02-14T05:47:13.165Z,2.90
2023-02-14T05:49:58.929Z,2.97
2023-02-14T05:52:44.468Z,2.50
2023-02-14T05:55:30.010Z,2.30
2023-02-14T06:01:23.733Z,2.70
2023-02-14T06:04:09.111Z,2.30
2023-02-14T06:06:54.341Z,2.93
2023-02-14T06:09:39.803Z,2.60
2023-02-14T06:12:25.184Z,3.40
2023-02-14T06:15:11.303Z,2.80
2023-02-14T06:17:57.741Z,2.83
2023-02-14T06:20:43.280Z,2.80
2023-02-14T06:23:28.949Z,2.57
2023-02-14T06:26:14.668Z,2.53
2023-02-14T06:29:00.198Z,2.73
2023-02-14T06:31:46.165Z,2.67
2023-02-14T06:34:31.552Z,2.50
2023-02-14T06:37:16.906Z,2.83
2023-02-14T06:40:02.416Z,2.50
2023-02-14T06:42:48.377Z,2.57
2023-02-14T06:45:33.802Z,2.60
2023-02-14T06:48:18.991Z,3.10
2023-02-14T06:51:04.582Z,2.70
2023-02-14T06:53:49.941Z,2.83
2023-02-14T06:56:35.237Z,2.80
2023-02-14T06:59:20.556Z,2.50
2023-02-14T07:02:06.541Z,2.67
2023-02-14T07:04:51.826Z,2.60
2023-02-14T07:07:37.022Z,2.60
2023-02-14T07:10:22.359Z,2.67
2023-02-14T07:13:07.649Z,2.50
2023-02-14T07:15:52.934Z,2.40
2023-02-14T07:18:38.610Z,2.73
2023-02-14T07:21:25.780Z,2.37
2023-02-14T07:24:11.769Z,2.40
2023-02-14T07:26:56.972Z,2.70
2023-02-14T07:29:42.048Z,2.70
2023-02-14T07:32:27.552Z,2.80
2023-02-14T07:35:15.016Z,2.47
2023-02-14T07:38:01.499Z,2.43
2023-02-14T07:40:47.259Z,2.43
2023-02-14T07:43:34.476Z,2.37
2023-02-14T07:46:19.654Z,2.97
2023-02-14T07:49:05.542Z,2.70
2023-02-14T07:51:50.739Z,2.83
2023-02-14T07:54:36.204Z,2.80
2023-02-14T07:57:21.433Z,2.50
2023-02-14T08:00:08.014Z,2.70
2023-02-14T08:02:57.324Z,2.40
2023-02-14T08:05:43.161Z,2.47
2023-02-14T08:08:30.680Z,2.53
2023-02-14T08:11:36.360Z,2.53
2023-02-14T08:14:22.818Z,2.67
2023-02-14T08:17:10.137Z,2.53
2023-02-14T08:19:56.918Z,2.77
2023-02-14T08:22:42.957Z,2.60
2023-02-14T08:25:28.377Z,2.47
2023-02-14T08:28:14.934Z,2.73
2023-02-14T08:31:02.151Z,2.77
2023-02-14T08:33:47.820Z,2.83
2023-02-14T08:36:34.505Z,2.87
2023-02-14T08:39:20.042Z,2.60
2023-02-14T08:42:06.042Z,2.90
2023-02-14T08:44:51.325Z,2.70
2023-02-14T08:47:38.614Z,2.63
2023-02-14T08:50:24.035Z,2.53
2023-02-14T08:53:11.238Z,2.50
2023-02-14T08:55:56.898Z,2.40
2023-02-14T08:58:42.506Z,2.40
2023-02-14T09:01:29.221Z,2.53
2023-02-14T09:04:14.974Z,2.50
2023-02-14T09:07:00.610Z,2.47
2023-02-14T09:09:45.851Z,2.70
2023-02-14T09:12:31.130Z,2.50
2023-02-14T09:15:16.538Z,2.50
2023-02-14T09:18:01.986Z,2.57
2023-02-14T09:20:47.219Z,2.63
2023-02-14T09:23:32.629Z,2.63
2023-02-14T09:26:18.859Z,2.77
2023-02-14T09:29:04.033Z,3.00
2023-02-14T09:31:52.169Z,2.90
2023-02-14T09:34:37.407Z,2.90
2023-02-14T09:37:41.162Z,2.83
2023-02-14T09:43:30.697Z,2.60
2023-02-14T09:46:18.862Z,2.50
2023-02-14T09:49:04.448Z,2.50
2023-02-14T09:51:53.371Z,2.90
2023-02-14T09:54:42.540Z,2.67
2023-02-14T09:57:27.979Z,2.90
2023-02-14T10:00:23.008Z,2.93
2023-02-14T10:03:46.056Z,3.00
2023-02-14T10:06:40.683Z,2.42
2023-02-14T10:10:13.103Z,3.17
2023-02-14T10:13:31.566Z,2.90
2023-02-14T10:16:26.849Z,3.30
2023-02-14T10:19:19.677Z,3.20
2023-02-14T10:22:13.052Z,3.03
2023-02-14T10:25:22.580Z,3.15
2023-02-14T10:28:11.437Z,3.33
2023-02-14T10:31:08.009Z,3.63
2023-02-14T10:33:58.018Z,3.17
2023-02-14T10:37:01.437Z,3.30
2023-02-14T10:40:02.289Z,3.67
2023-02-14T10:42:58.464Z,3.23
2023-02-14T10:46:07.300Z,3.20
2023-02-14T10:49:32.017Z,3.27
2023-02-14T10:52:42.379Z,3.03
2023-02-14T10:55:47.186Z,3.03
2023-02-14T10:58:36.668Z,3.33
2023-02-14T11:01:22.618Z,3.40
2023-02-14T11:04:11.594Z,3.30
2023-02-14T11:06:57.126Z,3.30
2023-02-14T11:09:42.490Z,3.40
2023-02-14T11:12:40.370Z,3.83
2023-02-14T11:15:29.015Z,4.00
2023-02-14T11:18:23.307Z,3.67
2023-02-14T11:21:10.567Z,3.57
2023-02-14T11:23:55.885Z,4.00
2023-02-14T11:26:46.842Z,3.67
2023-02-14T11:29:53.190Z,3.80
2023-02-14T11:32:40.842Z,3.80
2023-02-14T11:35:34.604Z,3.97
2023-02-14T11:38:40.087Z,4.40
2023-02-14T11:41:26.137Z,3.90
2023-02-14T11:44:22.812Z,4.27
2023-02-14T11:47:27.402Z,4.40
2023-02-14T11:50:24.824Z,4.60
2023-02-14T11:53:12.601Z,4.70
2023-02-14T11:56:00.678Z,4.30
2023-02-14T11:59:05.907Z,4.43
2023-02-14T12:01:52.615Z,4.87
2023-02-14T12:04:46.548Z,4.67
2023-02-14T12:07:36.165Z,4.30
2023-02-14T12:10:27.591Z,4.37
2023-02-14T12:13:13.131Z,4.33
2023-02-14T12:15:59.581Z,4.60
2023-02-14T12:19:00.532Z,4.80
2023-02-14T12:22:06.898Z,4.87
2023-02-14T12:25:16.902Z,5.00
2023-02-14T12:28:13.476Z,4.33
2023-02-14T12:30:59.542Z,4.60
2023-02-14T12:33:47.135Z,4.67
2023-02-14T12:36:57.565Z,4.40
2023-02-14T12:40:06.314Z,4.30
2023-02-14T12:43:09.228Z,4.53
2023-02-14T12:46:16.290Z,4.57
2023-02-14T12:49:23.347Z,4.70
2023-02-14T12:52:18.275Z,4.43
2023-02-14T12:55:29.601Z,4.50
2023-02-14T12:59:01.522Z,4.47
2023-02-14T13:01:59.063Z,3.90
2023-02-14T13:05:13.120Z,4.10
2023-02-14T13:08:20.049Z,4.30
2023-02-14T13:11:36.393Z,4.20
2023-02-14T13:14:51.246Z,4.27
2023-02-14T13:17:59.550Z,3.90
2023-02-14T13:20:58.498Z,3.83
2023-02-14T13:23:48.581Z,3.83
2023-02-14T13:26:39.668Z,3.47
2023-02-14T13:29:29.623Z,4.10
2023-02-14T13:32:20.193Z,4.03
2023-02-14T13:35:07.815Z,4.37
2023-02-14T13:37:58.833Z,4.70
2023-02-14T13:40:45.527Z,4.37
2023-02-14T13:43:46.300Z,4.47
2023-02-14T13:46:32.029Z,4.03
2023-02-14T13:49:36.818Z,4.40
2023-02-14T13:52:42.963Z,4.17
2023-02-14T13:55:34.874Z,4.60
2023-02-14T13:58:24.201Z,4.60
2023-02-14T14:01:31.489Z,4.70
2023-02-14T14:04:28.995Z,4.67
2023-02-14T14:07:25.706Z,4.63
2023-02-14T14:10:12.060Z,4.60
2023-02-14T14:12:58.006Z,4.40
2023-02-14T14:16:21.857Z,4.33
2023-02-14T14:19:27.161Z,4.40
2023-02-14T14:22:15.032Z,4.40
2023-02-14T14:25:07.659Z,4.77
2023-02-14T14:27:53.850Z,4.40
2023-02-14T14:30:44.744Z,4.70
2023-02-14T14:33:34.875Z,4.63
2023-02-14T14:36:24.364Z,4.70
2023-02-14T14:39:10.528Z,4.60
2023-02-14T14:42:06.675Z,4.70
2023-02-14T14:45:02.971Z,4.53
2023-02-14T14:47:52.874Z,4.60
2023-02-14T14:50:45.307Z,4.37
2023-02-14T14:53:50.559Z,4.30
2023-02-14T14:56:44.722Z,4.50
2023-02-14T14:59:40.355Z,4.47
2023-02-14T15:02:27.704Z,3.90
2023-02-14T15:05:43.788Z,4.30
2023-02-14T15:08:33.482Z,3.97
2023-02-14T15:11:47.722Z,4.17
2023-02-14T15:14:37.213Z,4.07
2023-02-14T15:17:26.872Z,3.60
2023-02-14T15:20:23.587Z,4.10
2023-02-14T15:23:25.956Z,3.60
2023-02-14T15:26:18.925Z,3.93
2023-02-14T15:29:07.801Z,3.53
2023-02-14T15:31:54.569Z,3.60
2023-02-14T15:34:39.716Z,3.60
2023-02-14T15:37:25.911Z,3.73
2023-02-14T15:40:38.860Z,3.93
2023-02-14T15:43:32.542Z,3.70
2023-02-14T15:46:24.821Z,3.80
2023-02-14T15:49:15.617Z,3.33
2023-02-14T15:52:03.219Z,3.63
2023-02-14T15:54:48.637Z,3.73
2023-02-14T15:57:34.775Z,4.07
2023-02-14T16:00:21.869Z,3.33
2023-02-14T16:03:12.278Z,3.70
2023-02-14T16:05:58.434Z,3.57
2023-02-14T16:08:43.742Z,3.63
2023-02-14T16:11:38.106Z,3.27
2023-02-14T16:14:35.698Z,3.60
2023-02-14T16:17:33.526Z,3.73
2023-02-14T16:20:34.470Z,3.70
2023-02-14T16:23:28.592Z,4.27
2023-02-14T16:26:14.830Z,3.50
2023-02-14T16:29:07.119Z,3.70
2023-02-14T16:32:14.680Z,3.80
2023-02-14T16:35:01.383Z,4.00
2023-02-14T16:37:49.959Z,4.57
2023-02-14T16:40:35.640Z,3.93
2023-02-14T16:43:21.619Z,4.57
2023-02-14T16:46:11.523Z,4.47
2023-02-14T16:48:57.321Z,4.50
2023-02-14T16:51:45.459Z,5.03
2023-02-14T16:54:32.380Z,5.87
2023-02-14T16:57:27.742Z,5.60
2023-02-14T17:00:14.277Z,5.90
2023-02-14T17:03:10.975Z,5.60
2023-02-14T17:05:58.147Z,6.00
2023-02-14T17:08:44.402Z,5.90
2023-02-14T17:11:32.031Z,5.83
2023-02-14T17:14:21.773Z,5.83
2023-02-14T17:17:08.642Z,5.77
2023-02-14T17:19:54.492Z,6.47
2023-02-14T17:22:42.557Z,5.77
2023-02-14T17:25:28.145Z,6.00
2023-02-14T17:28:13.530Z,6.03
2023-02-14T17:31:00.583Z,5.90
2023-02-14T17:33:46.332Z,6.60
2023-02-14T17:36:32.377Z,6.10
2023-02-14T17:39:18.968Z,6.83
2023-02-14T17:42:04.583Z,7.53
2023-02-14T17:44:50.289Z,7.43
2023-02-14T17:47:35.901Z,7.20
2023-02-14T17:50:21.670Z,7.30
2023-02-14T17:53:07.759Z,7.63
2023-02-14T17:55:53.265Z,7.17
2023-02-14T17:58:39.160Z,6.50
2023-02-14T18:01:27.037Z,6.80
2023-02-14T18:04:13.397Z,6.63
2023-02-14T18:06:58.977Z,6.60
2023-02-14T18:09:44.457Z,6.97
2023-02-14T18:12:30.390Z,6.80
2023-02-14T18:15:15.789Z,6.70
2023-02-14T18:18:01.409Z,6.07
2023-02-14T18:20:54.714Z,6.27
2023-02-14T18:23:40.171Z,6.97
2023-02-14T18:26:27.367Z,6.20
2023-02-14T18:29:14.015Z,6.50
2023-02-14T18:31:59.626Z,6.03
2023-02-14T18:34:45.089Z,6.33
2023-02-14T18:37:30.664Z,6.13
2023-02-14T18:40:20.210Z,6.60
2023-02-14T18:43:08.309Z,6.30
2023-02-14T18:45:55.326Z,6.73
2023-02-14T18:48:41.419Z,6.10
2023-02-14T18:51:29.843Z,6.43
2023-02-14T18:54:15.196Z,6.00
2023-02-14T18:57:00.983Z,6.30
2023-02-14T18:59:46.689Z,6.73
2023-02-14T19:02:32.751Z,5.87
2023-02-14T19:05:18.612Z,6.10
2023-02-14T19:08:06.770Z,6.07
2023-02-14T19:10:52.469Z,6.03
2023-02-14T19:13:38.935Z,6.20
2023-02-14T19:16:38.013Z,6.30
2023-02-14T19:19:24.672Z,5.77
2023-02-14T19:22:10.141Z,6.30
2023-02-14T19:24:57.263Z,5.87
2023-02-14T19:27:43.072Z,6.20
2023-02-14T19:30:28.744Z,5.90
2023-02-14T19:33:14.204Z,6.00
2023-02-14T19:36:05.538Z,6.07
2023-02-14T19:38:54.830Z,6.53
2023-02-14T19:41:41.054Z,6.00
2023-02-14T19:44:28.757Z,6.03
2023-02-14T19:47:27.168Z,6.20
2023-02-14T19:50:17.673Z,6.30
2023-02-14T19:53:03.625Z,5.87
2023-02-14T19:55:49.282Z,6.20
2023-02-14T19:58:37.295Z,5.70
2023-02-14T20:01:52.195Z,6.33
2023-02-14T20:04:37.912Z,6.10
2023-02-14T20:07:23.235Z,6.13
2023-02-14T20:10:09.387Z,6.50
2023-02-14T20:12:55.076Z,6.00
2023-02-14T20:15:40.795Z,5.97
2023-02-14T20:18:26.165Z,6.03
2023-02-14T20:21:28.013Z,5.50
2023-02-14T20:24:23.228Z,6.30
2023-02-14T20:27:09.173Z,5.97
2023-02-14T20:29:55.952Z,6.50
2023-02-14T20:32:41.667Z,6.03
2023-02-14T20:35:27.098Z,5.77
2023-02-14T20:38:12.631Z,6.50
2023-02-14T20:40:59.100Z,5.70
2023-02-14T20:43:48.929Z,6.23
2023-02-14T20:46:39.195Z,5.73
2023-02-14T20:49:30.775Z,5.80
2023-02-14T20:52:18.022Z,5.50
2023-02-14T20:55:04.219Z,5.33
2023-02-14T20:57:49.891Z,6.07
2023-02-14T21:00:35.331Z,6.20
2023-02-14T21:03:22.519Z,5.93
2023-02-14T21:06:11.663Z,5.33
2023-02-14T21:08:57.727Z,5.70
2023-02-14T21:11:44.404Z,6.30
2023-02-14T21:14:30.289Z,5.97
2023-02-14T21:17:15.950Z,6.60
2023-02-14T21:20:01.437Z,5.70
2023-02-14T21:22:46.687Z,5.77
2023-02-14T21:25:32.787Z,5.33
2023-02-14T21:28:18.040Z,5.10
2023-02-14T21:31:11.343Z,5.47
2023-02-14T21:36:43.729Z,5.47
2023-02-14T21:39:31.030Z,5.70
2023-02-14T21:42:18.513Z,5.87
2023-02-14T21:45:22.586Z,5.80
2023-02-14T21:48:26.536Z,5.90
2023-02-14T21:51:11.613Z,5.90
2023-02-14T21:53:59.852Z,5.37
2023-02-14T21:56:45.542Z,5.30
2023-02-14T21:59:30.804Z,5.30
2023-02-14T22:02:15.944Z,5.57
2023-02-14T22:05:01.317Z,5.00
2023-02-14T22:07:46.667Z,5.40
2023-02-14T22:10:32.026Z,5.30
2023-02-14T22:13:17.457Z,5.50
2023-02-14T22:16:05.129Z,5.60
2023-02-14T22:18:51.173Z,5.47
2023-02-14T22:21:36.419Z,5.27
2023-02-14T22:24:22.395Z,5.33
2023-02-14T22:27:07.618Z,5.20
2023-02-14T22:29:52.907Z,5.30
2023-02-14T22:32:38.233Z,5.07
2023-02-14T22:35:23.501Z,5.10
2023-02-14T22:38:08.890Z,5.27
2023-02-14T22:40:54.493Z,5.20
2023-02-14T22:43:41.013Z,5.00
2023-02-14T22:46:28.387Z,5.13
2023-02-14T22:49:13.863Z,4.60
2023-02-14T22:51:59.470Z,5.07
2023-02-14T22:54:44.772Z,5.20
2023-02-14T22:57:31.878Z,5.17
2023-02-14T23:00:17.379Z,4.63
2023-02-14T23:03:02.682Z,4.80
2023-02-14T23:05:48.013Z,4.33
2023-02-14T23:08:33.549Z,5.63
2023-02-14T23:11:21.606Z,4.50
2023-02-14T23:14:27.606Z,5.00
2023-02-14T23:17:18.785Z,4.90
2023-02-14T23:20:23.342Z,4.43
2023-02-14T23:23:08.733Z,4.60
2023-02-14T23:25:54.060Z,5.07
2023-02-14T23:28:39.572Z,4.77
2023-02-14T23:31:24.832Z,4.57
2023-02-14T23:34:10.240Z,4.40
2023-02-14T23:36:55.582Z,4.43
2023-02-14T23:39:41.657Z,4.40
2023-02-14T23:42:28.249Z,4.50
2023-02-14T23:45:31.964Z,4.53
2023-02-14T23:51:02.675Z,4.47
2023-02-14T23:53:47.981Z,4.20
2023-02-14T23:56:34.261Z,4.10
2023-02-14T23:59:21.632Z,4.03
